sensor_id;sensor_type;location;lat;lon;timestamp;P1;durP1;ratioP1;P2;durP2;ratioP2
70067;SDS011;57425;51.616;6.680;2023-04-07T00:00:05;14.33;;;8.87;;
70067;SDS011;57425;51.616;6.680;2023-04-07T00:02:32;12.50;;;8.40;;
70067;SDS011;57425;51.616;6.680;2023-04-07T00:04:57;15.43;;;8.37;;
70067;SDS011;57425;51.616;6.680;2023-04-07T00:07:23;16.03;;;8.27;;
70067;SDS011;57425;51.616;6.680;2023-04-07T00:09:49;11.63;;;7.53;;
70067;SDS011;57425;51.616;6.680;2023-04-07T00:12:14;13.43;;;8.17;;
70067;SDS011;57425;51.616;6.680;2023-04-07T00:14:40;15.07;;;9.23;;
70067;SDS011;57425;51.616;6.680;2023-04-07T00:17:06;15.63;;;8.53;;
70067;SDS011;57425;51.616;6.680;2023-04-07T00:19:31;13.33;;;8.00;;
70067;SDS011;57425;51.616;6.680;2023-04-07T00:21:57;16.90;;;8.40;;
70067;SDS011;57425;51.616;6.680;2023-04-07T00:24:23;12.53;;;7.77;;
70067;SDS011;57425;51.616;6.680;2023-04-07T00:26:48;19.83;;;9.07;;
70067;SDS011;57425;51.616;6.680;2023-04-07T00:29:14;16.77;;;8.33;;
70067;SDS011;57425;51.616;6.680;2023-04-07T00:31:40;17.47;;;9.77;;
70067;SDS011;57425;51.616;6.680;2023-04-07T00:34:05;14.00;;;8.50;;
70067;SDS011;57425;51.616;6.680;2023-04-07T00:36:31;13.00;;;8.03;;
70067;SDS011;57425;51.616;6.680;2023-04-07T00:38:57;14.20;;;7.57;;
70067;SDS011;57425;51.616;6.680;2023-04-07T00:41:22;12.97;;;7.50;;
70067;SDS011;57425;51.616;6.680;2023-04-07T00:43:49;15.33;;;8.33;;
70067;SDS011;57425;51.616;6.680;2023-04-07T00:46:15;12.50;;;7.60;;
70067;SDS011;57425;51.616;6.680;2023-04-07T00:48:42;15.43;;;9.27;;
70067;SDS011;57425;51.616;6.680;2023-04-07T00:51:08;10.77;;;6.70;;
70067;SDS011;57425;51.616;6.680;2023-04-07T00:53:34;13.03;;;7.37;;
70067;SDS011;57425;51.616;6.680;2023-04-07T00:56:00;13.80;;;7.23;;
70067;SDS011;57425;51.616;6.680;2023-04-07T00:58:25;17.67;;;6.83;;
70067;SDS011;57425;51.616;6.680;2023-04-07T01:00:54;13.40;;;7.47;;
70067;SDS011;57425;51.616;6.680;2023-04-07T01:03:29;13.07;;;7.27;;
70067;SDS011;57425;51.616;6.680;2023-04-07T01:06:00;11.97;;;6.80;;
70067;SDS011;57425;51.616;6.680;2023-04-07T01:08:31;12.00;;;6.70;;
70067;SDS011;57425;51.616;6.680;2023-04-07T01:11:25;14.57;;;7.63;;
70067;SDS011;57425;51.616;6.680;2023-04-07T01:16:31;13.17;;;6.40;;
70067;SDS011;57425;51.616;6.680;2023-04-07T01:22:02;21.47;;;7.53;;
70067;SDS011;57425;51.616;6.680;2023-04-07T01:30:27;13.07;;;7.30;;
70067;SDS011;57425;51.616;6.680;2023-04-07T01:32:54;14.63;;;7.90;;
70067;SDS011;57425;51.616;6.680;2023-04-07T01:35:23;19.50;;;8.63;;
70067;SDS011;57425;51.616;6.680;2023-04-07T01:37:56;16.97;;;7.90;;
70067;SDS011;57425;51.616;6.680;2023-04-07T01:40:24;18.27;;;9.17;;
70067;SDS011;57425;51.616;6.680;2023-04-07T01:42:51;20.73;;;9.30;;
70067;SDS011;57425;51.616;6.680;2023-04-07T01:45:17;16.80;;;9.67;;
70067;SDS011;57425;51.616;6.680;2023-04-07T01:47:45;33.83;;;10.40;;
70067;SDS011;57425;51.616;6.680;2023-04-07T01:50:11;21.40;;;10.63;;
70067;SDS011;57425;51.616;6.680;2023-04-07T01:52:38;23.73;;;11.40;;
70067;SDS011;57425;51.616;6.680;2023-04-07T01:55:05;24.80;;;11.37;;
70067;SDS011;57425;51.616;6.680;2023-04-07T01:57:31;22.00;;;11.80;;
70067;SDS011;57425;51.616;6.680;2023-04-07T01:59:57;31.07;;;12.63;;
70067;SDS011;57425;51.616;6.680;2023-04-07T02:02:23;24.13;;;11.57;;
70067;SDS011;57425;51.616;6.680;2023-04-07T02:07:26;27.67;;;13.33;;
70067;SDS011;57425;51.616;6.680;2023-04-07T02:09:59;31.50;;;12.77;;
70067;SDS011;57425;51.616;6.680;2023-04-07T02:12:29;28.93;;;13.40;;
70067;SDS011;57425;51.616;6.680;2023-04-07T02:14:57;32.77;;;14.37;;
70067;SDS011;57425;51.616;6.680;2023-04-07T02:17:24;38.60;;;13.80;;
70067;SDS011;57425;51.616;6.680;2023-04-07T02:19:52;34.77;;;13.93;;
70067;SDS011;57425;51.616;6.680;2023-04-07T02:22:20;42.40;;;15.47;;
70067;SDS011;57425;51.616;6.680;2023-04-07T02:24:46;31.00;;;13.50;;
70067;SDS011;57425;51.616;6.680;2023-04-07T02:27:12;33.00;;;15.00;;
70067;SDS011;57425;51.616;6.680;2023-04-07T02:29:38;31.50;;;12.13;;
70067;SDS011;57425;51.616;6.680;2023-04-07T02:32:04;36.07;;;14.43;;
70067;SDS011;57425;51.616;6.680;2023-04-07T02:34:30;28.17;;;13.07;;
70067;SDS011;57425;51.616;6.680;2023-04-07T02:36:55;28.87;;;12.97;;
70067;SDS011;57425;51.616;6.680;2023-04-07T02:39:21;38.73;;;14.27;;
70067;SDS011;57425;51.616;6.680;2023-04-07T02:41:47;40.70;;;13.70;;
70067;SDS011;57425;51.616;6.680;2023-04-07T02:44:12;37.13;;;14.37;;
70067;SDS011;57425;51.616;6.680;2023-04-07T02:46:38;30.67;;;12.57;;
70067;SDS011;57425;51.616;6.680;2023-04-07T02:49:03;40.23;;;14.93;;
70067;SDS011;57425;51.616;6.680;2023-04-07T02:51:30;30.20;;;13.27;;
70067;SDS011;57425;51.616;6.680;2023-04-07T02:53:56;35.93;;;12.90;;
70067;SDS011;57425;51.616;6.680;2023-04-07T02:56:22;46.77;;;13.90;;
70067;SDS011;57425;51.616;6.680;2023-04-07T02:58:47;31.17;;;12.13;;
70067;SDS011;57425;51.616;6.680;2023-04-07T03:01:13;39.13;;;12.53;;
70067;SDS011;57425;51.616;6.680;2023-04-07T03:03:38;46.67;;;12.73;;
70067;SDS011;57425;51.616;6.680;2023-04-07T03:06:06;32.30;;;12.20;;
70067;SDS011;57425;51.616;6.680;2023-04-07T03:08:32;34.33;;;11.90;;
70067;SDS011;57425;51.616;6.680;2023-04-07T03:10:57;35.30;;;12.60;;
70067;SDS011;57425;51.616;6.680;2023-04-07T03:13:23;36.70;;;12.80;;
70067;SDS011;57425;51.616;6.680;2023-04-07T03:15:48;33.40;;;13.20;;
70067;SDS011;57425;51.616;6.680;2023-04-07T03:18:14;47.10;;;13.20;;
70067;SDS011;57425;51.616;6.680;2023-04-07T03:20:40;38.93;;;11.87;;
70067;SDS011;57425;51.616;6.680;2023-04-07T03:23:06;37.67;;;13.77;;
70067;SDS011;57425;51.616;6.680;2023-04-07T03:25:32;35.57;;;12.80;;
70067;SDS011;57425;51.616;6.680;2023-04-07T03:27:58;33.70;;;12.00;;
70067;SDS011;57425;51.616;6.680;2023-04-07T03:30:23;31.87;;;12.33;;
70067;SDS011;57425;51.616;6.680;2023-04-07T03:32:49;33.17;;;12.53;;
70067;SDS011;57425;51.616;6.680;2023-04-07T03:35:15;29.33;;;11.10;;
70067;SDS011;57425;51.616;6.680;2023-04-07T03:37:40;46.33;;;13.23;;
70067;SDS011;57425;51.616;6.680;2023-04-07T03:40:06;38.60;;;12.40;;
70067;SDS011;57425;51.616;6.680;2023-04-07T03:42:32;39.13;;;13.40;;
70067;SDS011;57425;51.616;6.680;2023-04-07T03:44:58;34.90;;;12.77;;
70067;SDS011;57425;51.616;6.680;2023-04-07T03:47:23;39.60;;;12.23;;
70067;SDS011;57425;51.616;6.680;2023-04-07T03:49:49;40.03;;;12.07;;
70067;SDS011;57425;51.616;6.680;2023-04-07T03:52:15;40.33;;;12.90;;
70067;SDS011;57425;51.616;6.680;2023-04-07T03:54:40;39.37;;;12.57;;
70067;SDS011;57425;51.616;6.680;2023-04-07T03:57:06;31.60;;;10.77;;
70067;SDS011;57425;51.616;6.680;2023-04-07T03:59:32;41.40;;;12.07;;
70067;SDS011;57425;51.616;6.680;2023-04-07T04:01:57;33.83;;;10.57;;
70067;SDS011;57425;51.616;6.680;2023-04-07T04:04:23;34.07;;;11.23;;
70067;SDS011;57425;51.616;6.680;2023-04-07T04:06:49;23.77;;;9.70;;
70067;SDS011;57425;51.616;6.680;2023-04-07T04:09:15;26.60;;;10.57;;
70067;SDS011;57425;51.616;6.680;2023-04-07T04:11:41;33.03;;;9.23;;
70067;SDS011;57425;51.616;6.680;2023-04-07T04:14:06;25.13;;;7.73;;
70067;SDS011;57425;51.616;6.680;2023-04-07T04:16:32;27.30;;;9.00;;
70067;SDS011;57425;51.616;6.680;2023-04-07T04:18:59;26.10;;;8.33;;
70067;SDS011;57425;51.616;6.680;2023-04-07T04:21:25;21.93;;;7.40;;
70067;SDS011;57425;51.616;6.680;2023-04-07T04:23:51;21.57;;;8.00;;
70067;SDS011;57425;51.616;6.680;2023-04-07T04:26:19;21.90;;;7.53;;
70067;SDS011;57425;51.616;6.680;2023-04-07T04:28:49;25.42;;;6.40;;
70067;SDS011;57425;51.616;6.680;2023-04-07T04:31:15;16.93;;;6.17;;
70067;SDS011;57425;51.616;6.680;2023-04-07T04:33:41;14.83;;;6.47;;
70067;SDS011;57425;51.616;6.680;2023-04-07T04:36:06;16.40;;;6.07;;
70067;SDS011;57425;51.616;6.680;2023-04-07T04:38:32;16.00;;;6.17;;
70067;SDS011;57425;51.616;6.680;2023-04-07T04:40:57;14.00;;;5.20;;
70067;SDS011;57425;51.616;6.680;2023-04-07T04:43:23;14.83;;;5.80;;
70067;SDS011;57425;51.616;6.680;2023-04-07T04:45:49;12.53;;;5.03;;
70067;SDS011;57425;51.616;6.680;2023-04-07T04:48:15;13.17;;;5.33;;
70067;SDS011;57425;51.616;6.680;2023-04-07T04:50:41;13.27;;;5.03;;
70067;SDS011;57425;51.616;6.680;2023-04-07T04:53:07;14.47;;;5.13;;
70067;SDS011;57425;51.616;6.680;2023-04-07T04:55:34;10.97;;;4.43;;
70067;SDS011;57425;51.616;6.680;2023-04-07T04:58:00;9.30;;;4.80;;
70067;SDS011;57425;51.616;6.680;2023-04-07T05:00:25;15.63;;;4.90;;
70067;SDS011;57425;51.616;6.680;2023-04-07T05:02:51;13.10;;;4.50;;
70067;SDS011;57425;51.616;6.680;2023-04-07T05:05:16;8.23;;;4.57;;
70067;SDS011;57425;51.616;6.680;2023-04-07T05:07:42;16.97;;;4.53;;
70067;SDS011;57425;51.616;6.680;2023-04-07T05:10:08;9.50;;;4.87;;
70067;SDS011;57425;51.616;6.680;2023-04-07T05:12:34;15.20;;;6.07;;
70067;SDS011;57425;51.616;6.680;2023-04-07T05:15:00;9.60;;;4.00;;
70067;SDS011;57425;51.616;6.680;2023-04-07T05:17:25;13.67;;;5.10;;
70067;SDS011;57425;51.616;6.680;2023-04-07T05:19:51;14.23;;;5.60;;
70067;SDS011;57425;51.616;6.680;2023-04-07T05:22:16;16.50;;;4.47;;
70067;SDS011;57425;51.616;6.680;2023-04-07T05:24:42;10.33;;;3.93;;
70067;SDS011;57425;51.616;6.680;2023-04-07T05:27:07;15.13;;;4.50;;
70067;SDS011;57425;51.616;6.680;2023-04-07T05:29:33;11.10;;;4.97;;
70067;SDS011;57425;51.616;6.680;2023-04-07T05:31:59;9.93;;;4.80;;
70067;SDS011;57425;51.616;6.680;2023-04-07T05:34:25;10.10;;;4.67;;
70067;SDS011;57425;51.616;6.680;2023-04-07T05:36:51;14.40;;;4.97;;
70067;SDS011;57425;51.616;6.680;2023-04-07T05:39:17;11.37;;;5.40;;
70067;SDS011;57425;51.616;6.680;2023-04-07T05:41:42;14.43;;;5.63;;
70067;SDS011;57425;51.616;6.680;2023-04-07T05:44:09;16.20;;;7.27;;
70067;SDS011;57425;51.616;6.680;2023-04-07T05:46:34;21.13;;;6.60;;
70067;SDS011;57425;51.616;6.680;2023-04-07T05:49:00;23.10;;;5.93;;
70067;SDS011;57425;51.616;6.680;2023-04-07T05:51:26;18.80;;;7.03;;
70067;SDS011;57425;51.616;6.680;2023-04-07T05:53:51;18.73;;;7.10;;
70067;SDS011;57425;51.616;6.680;2023-04-07T05:56:17;18.87;;;7.17;;
70067;SDS011;57425;51.616;6.680;2023-04-07T05:58:43;28.57;;;7.63;;
70067;SDS011;57425;51.616;6.680;2023-04-07T06:01:08;20.07;;;7.20;;
70067;SDS011;57425;51.616;6.680;2023-04-07T06:03:34;20.97;;;7.77;;
70067;SDS011;57425;51.616;6.680;2023-04-07T06:05:59;28.30;;;7.77;;
70067;SDS011;57425;51.616;6.680;2023-04-07T06:08:25;25.80;;;7.73;;
70067;SDS011;57425;51.616;6.680;2023-04-07T06:10:51;29.10;;;7.97;;
70067;SDS011;57425;51.616;6.680;2023-04-07T06:13:16;33.37;;;9.77;;
70067;SDS011;57425;51.616;6.680;2023-04-07T06:15:42;39.63;;;9.13;;
70067;SDS011;57425;51.616;6.680;2023-04-07T06:18:08;23.90;;;8.30;;
70067;SDS011;57425;51.616;6.680;2023-04-07T06:20:33;37.80;;;9.63;;
70067;SDS011;57425;51.616;6.680;2023-04-07T06:22:59;29.47;;;9.17;;
70067;SDS011;57425;51.616;6.680;2023-04-07T06:25:25;40.47;;;9.47;;
70067;SDS011;57425;51.616;6.680;2023-04-07T06:27:52;35.43;;;9.13;;
70067;SDS011;57425;51.616;6.680;2023-04-07T06:30:18;34.53;;;8.87;;
70067;SDS011;57425;51.616;6.680;2023-04-07T06:32:43;28.63;;;8.37;;
70067;SDS011;57425;51.616;6.680;2023-04-07T06:35:09;36.20;;;8.33;;
70067;SDS011;57425;51.616;6.680;2023-04-07T06:37:35;30.03;;;9.57;;
70067;SDS011;57425;51.616;6.680;2023-04-07T06:40:01;35.17;;;8.93;;
70067;SDS011;57425;51.616;6.680;2023-04-07T06:42:26;34.50;;;9.40;;
70067;SDS011;57425;51.616;6.680;2023-04-07T06:44:52;33.17;;;9.97;;
70067;SDS011;57425;51.616;6.680;2023-04-07T06:47:17;32.10;;;8.63;;
70067;SDS011;57425;51.616;6.680;2023-04-07T06:49:43;33.90;;;10.57;;
70067;SDS011;57425;51.616;6.680;2023-04-07T06:52:08;36.20;;;9.07;;
70067;SDS011;57425;51.616;6.680;2023-04-07T06:54:34;30.27;;;8.47;;
70067;SDS011;57425;51.616;6.680;2023-04-07T06:57:00;29.37;;;8.80;;
70067;SDS011;57425;51.616;6.680;2023-04-07T06:59:26;24.20;;;8.53;;
70067;SDS011;57425;51.616;6.680;2023-04-07T07:01:51;25.77;;;8.47;;
70067;SDS011;57425;51.616;6.680;2023-04-07T07:04:17;22.97;;;7.80;;
70067;SDS011;57425;51.616;6.680;2023-04-07T07:06:42;22.90;;;8.23;;
70067;SDS011;57425;51.616;6.680;2023-04-07T07:09:08;20.87;;;8.07;;
70067;SDS011;57425;51.616;6.680;2023-04-07T07:11:33;26.83;;;7.83;;
70067;SDS011;57425;51.616;6.680;2023-04-07T07:13:59;28.93;;;9.13;;
70067;SDS011;57425;51.616;6.680;2023-04-07T07:16:25;20.17;;;7.53;;
70067;SDS011;57425;51.616;6.680;2023-04-07T07:18:50;26.77;;;8.13;;
70067;SDS011;57425;51.616;6.680;2023-04-07T07:21:16;23.57;;;8.50;;
70067;SDS011;57425;51.616;6.680;2023-04-07T07:23:42;32.23;;;8.03;;
70067;SDS011;57425;51.616;6.680;2023-04-07T07:26:08;26.53;;;7.70;;
70067;SDS011;57425;51.616;6.680;2023-04-07T07:28:34;31.43;;;7.47;;
70067;SDS011;57425;51.616;6.680;2023-04-07T07:31:00;23.87;;;8.33;;
70067;SDS011;57425;51.616;6.680;2023-04-07T07:33:34;23.53;;;7.13;;
70067;SDS011;57425;51.616;6.680;2023-04-07T07:35:59;28.43;;;8.00;;
70067;SDS011;57425;51.616;6.680;2023-04-07T07:38:25;23.83;;;8.47;;
70067;SDS011;57425;51.616;6.680;2023-04-07T07:40:51;20.43;;;5.33;;
70067;SDS011;57425;51.616;6.680;2023-04-07T07:43:17;21.90;;;6.87;;
70067;SDS011;57425;51.616;6.680;2023-04-07T07:45:43;15.67;;;6.03;;
70067;SDS011;57425;51.616;6.680;2023-04-07T07:48:08;28.03;;;6.10;;
70067;SDS011;57425;51.616;6.680;2023-04-07T07:50:34;23.40;;;6.30;;
70067;SDS011;57425;51.616;6.680;2023-04-07T07:53:00;12.17;;;5.33;;
70067;SDS011;57425;51.616;6.680;2023-04-07T07:55:26;17.70;;;6.10;;
70067;SDS011;57425;51.616;6.680;2023-04-07T07:57:51;19.33;;;7.20;;
70067;SDS011;57425;51.616;6.680;2023-04-07T08:00:17;19.37;;;5.60;;
70067;SDS011;57425;51.616;6.680;2023-04-07T08:02:42;23.30;;;6.60;;
70067;SDS011;57425;51.616;6.680;2023-04-07T08:05:08;24.47;;;6.97;;
70067;SDS011;57425;51.616;6.680;2023-04-07T08:07:34;24.30;;;7.17;;
70067;SDS011;57425;51.616;6.680;2023-04-07T08:10:00;23.70;;;6.90;;
70067;SDS011;57425;51.616;6.680;2023-04-07T08:12:26;19.63;;;6.87;;
70067;SDS011;57425;51.616;6.680;2023-04-07T08:14:51;25.63;;;7.53;;
70067;SDS011;57425;51.616;6.680;2023-04-07T08:17:17;23.97;;;7.03;;
70067;SDS011;57425;51.616;6.680;2023-04-07T08:19:42;29.00;;;6.97;;
70067;SDS011;57425;51.616;6.680;2023-04-07T08:22:08;23.47;;;6.93;;
70067;SDS011;57425;51.616;6.680;2023-04-07T08:24:34;31.73;;;7.30;;
70067;SDS011;57425;51.616;6.680;2023-04-07T08:26:59;31.60;;;7.73;;
70067;SDS011;57425;51.616;6.680;2023-04-07T08:29:25;25.23;;;7.97;;
70067;SDS011;57425;51.616;6.680;2023-04-07T08:31:51;28.13;;;6.93;;
70067;SDS011;57425;51.616;6.680;2023-04-07T08:34:16;23.77;;;7.17;;
70067;SDS011;57425;51.616;6.680;2023-04-07T08:36:44;20.47;;;6.93;;
70067;SDS011;57425;51.616;6.680;2023-04-07T08:39:10;25.33;;;7.63;;
70067;SDS011;57425;51.616;6.680;2023-04-07T08:41:36;32.53;;;8.37;;
70067;SDS011;57425;51.616;6.680;2023-04-07T08:44:04;24.97;;;7.47;;
70067;SDS011;57425;51.616;6.680;2023-04-07T08:46:31;20.30;;;7.43;;
70067;SDS011;57425;51.616;6.680;2023-04-07T08:48:58;30.13;;;7.60;;
70067;SDS011;57425;51.616;6.680;2023-04-07T08:51:29;29.37;;;7.87;;
70067;SDS011;57425;51.616;6.680;2023-04-07T08:56:30;32.42;;;7.45;;
70067;SDS011;57425;51.616;6.680;2023-04-07T08:58:57;21.33;;;7.77;;
70067;SDS011;57425;51.616;6.680;2023-04-07T09:01:25;24.70;;;7.23;;
70067;SDS011;57425;51.616;6.680;2023-04-07T09:03:51;23.87;;;7.83;;
70067;SDS011;57425;51.616;6.680;2023-04-07T09:06:17;25.27;;;7.70;;
70067;SDS011;57425;51.616;6.680;2023-04-07T09:08:43;23.93;;;7.60;;
70067;SDS011;57425;51.616;6.680;2023-04-07T09:11:09;19.47;;;7.47;;
70067;SDS011;57425;51.616;6.680;2023-04-07T09:13:35;27.67;;;8.83;;
70067;SDS011;57425;51.616;6.680;2023-04-07T09:16:01;23.07;;;7.53;;
70067;SDS011;57425;51.616;6.680;2023-04-07T09:18:27;28.27;;;8.00;;
70067;SDS011;57425;51.616;6.680;2023-04-07T09:21:03;36.17;;;8.60;;
70067;SDS011;57425;51.616;6.680;2023-04-07T09:23:33;28.17;;;8.27;;
70067;SDS011;57425;51.616;6.680;2023-04-07T09:26:00;28.10;;;8.13;;
70067;SDS011;57425;51.616;6.680;2023-04-07T09:28:45;25.00;;;8.50;;
70067;SDS011;57425;51.616;6.680;2023-04-07T09:31:14;26.60;;;7.70;;
70067;SDS011;57425;51.616;6.680;2023-04-07T09:33:40;27.93;;;8.87;;
70067;SDS011;57425;51.616;6.680;2023-04-07T09:36:06;30.67;;;7.13;;
70067;SDS011;57425;51.616;6.680;2023-04-07T09:38:35;32.93;;;8.83;;
70067;SDS011;57425;51.616;6.680;2023-04-07T09:43:37;23.77;;;6.45;;
70067;SDS011;57425;51.616;6.680;2023-04-07T09:48:33;26.90;;;7.67;;
70067;SDS011;57425;51.616;6.680;2023-04-07T09:53:49;26.33;;;7.57;;
70067;SDS011;57425;51.616;6.680;2023-04-07T09:56:16;31.50;;;8.25;;
70067;SDS011;57425;51.616;6.680;2023-04-07T09:58:48;22.20;;;6.97;;
70067;SDS011;57425;51.616;6.680;2023-04-07T10:01:18;26.53;;;7.30;;
70067;SDS011;57425;51.616;6.680;2023-04-07T10:03:45;27.20;;;7.70;;
70067;SDS011;57425;51.616;6.680;2023-04-07T10:06:13;24.50;;;7.70;;
70067;SDS011;57425;51.616;6.680;2023-04-07T10:08:40;16.73;;;6.30;;
70067;SDS011;57425;51.616;6.680;2023-04-07T10:11:07;23.57;;;7.27;;
70067;SDS011;57425;51.616;6.680;2023-04-07T10:13:34;24.07;;;7.47;;
70067;SDS011;57425;51.616;6.680;2023-04-07T10:16:02;23.40;;;8.50;;
70067;SDS011;57425;51.616;6.680;2023-04-07T10:18:33;22.33;;;7.50;;
70067;SDS011;57425;51.616;6.680;2023-04-07T10:21:04;26.57;;;6.77;;
70067;SDS011;57425;51.616;6.680;2023-04-07T10:26:03;22.83;;;6.67;;
70067;SDS011;57425;51.616;6.680;2023-04-07T10:28:31;24.80;;;6.87;;
70067;SDS011;57425;51.616;6.680;2023-04-07T10:30:58;14.10;;;4.80;;
70067;SDS011;57425;51.616;6.680;2023-04-07T10:36:13;19.87;;;7.37;;
70067;SDS011;57425;51.616;6.680;2023-04-07T10:38:38;12.77;;;4.93;;
70067;SDS011;57425;51.616;6.680;2023-04-07T10:44:08;17.10;;;5.23;;
70067;SDS011;57425;51.616;6.680;2023-04-07T10:49:15;12.47;;;5.13;;
70067;SDS011;57425;51.616;6.680;2023-04-07T10:51:41;12.70;;;4.67;;
70067;SDS011;57425;51.616;6.680;2023-04-07T10:54:16;14.40;;;6.10;;
70067;SDS011;57425;51.616;6.680;2023-04-07T10:59:31;22.40;;;5.93;;
70067;SDS011;57425;51.616;6.680;2023-04-07T11:04:45;16.17;;;5.50;;
70067;SDS011;57425;51.616;6.680;2023-04-07T11:07:12;15.63;;;4.77;;
70067;SDS011;57425;51.616;6.680;2023-04-07T11:09:39;16.07;;;4.80;;
70067;SDS011;57425;51.616;6.680;2023-04-07T11:12:04;8.97;;;3.70;;
70067;SDS011;57425;51.616;6.680;2023-04-07T11:14:30;14.90;;;3.93;;
70067;SDS011;57425;51.616;6.680;2023-04-07T11:16:57;10.30;;;4.00;;
70067;SDS011;57425;51.616;6.680;2023-04-07T11:19:25;14.17;;;3.90;;
70067;SDS011;57425;51.616;6.680;2023-04-07T11:22:11;9.10;;;4.00;;
70067;SDS011;57425;51.616;6.680;2023-04-07T11:24:40;8.67;;;3.97;;
70067;SDS011;57425;51.616;6.680;2023-04-07T11:27:10;10.07;;;3.47;;
70067;SDS011;57425;51.616;6.680;2023-04-07T11:29:37;11.53;;;4.63;;
70067;SDS011;57425;51.616;6.680;2023-04-07T11:32:03;9.37;;;4.57;;
70067;SDS011;57425;51.616;6.680;2023-04-07T11:34:29;9.20;;;4.33;;
70067;SDS011;57425;51.616;6.680;2023-04-07T11:36:55;17.27;;;4.60;;
70067;SDS011;57425;51.616;6.680;2023-04-07T11:39:24;16.57;;;5.03;;
70067;SDS011;57425;51.616;6.680;2023-04-07T11:41:59;14.37;;;4.90;;
70067;SDS011;57425;51.616;6.680;2023-04-07T11:44:25;11.83;;;4.93;;
70067;SDS011;57425;51.616;6.680;2023-04-07T11:49:23;18.43;;;5.40;;
70067;SDS011;57425;51.616;6.680;2023-04-07T11:54:43;12.10;;;5.93;;
70067;SDS011;57425;51.616;6.680;2023-04-07T11:57:11;18.70;;;6.30;;
70067;SDS011;57425;51.616;6.680;2023-04-07T11:59:37;28.30;;;6.33;;
70067;SDS011;57425;51.616;6.680;2023-04-07T12:02:03;18.30;;;7.07;;
70067;SDS011;57425;51.616;6.680;2023-04-07T12:04:29;19.37;;;6.63;;
70067;SDS011;57425;51.616;6.680;2023-04-07T12:07:05;17.43;;;5.83;;
70067;SDS011;57425;51.616;6.680;2023-04-07T12:09:35;14.50;;;5.30;;
70067;SDS011;57425;51.616;6.680;2023-04-07T12:12:02;13.57;;;5.20;;
70067;SDS011;57425;51.616;6.680;2023-04-07T12:14:32;15.70;;;5.73;;
70067;SDS011;57425;51.616;6.680;2023-04-07T12:16:58;16.57;;;6.40;;
70067;SDS011;57425;51.616;6.680;2023-04-07T12:19:27;19.83;;;7.20;;
70067;SDS011;57425;51.616;6.680;2023-04-07T12:21:54;10.57;;;4.90;;
70067;SDS011;57425;51.616;6.680;2023-04-07T12:24:20;12.67;;;5.40;;
70067;SDS011;57425;51.616;6.680;2023-04-07T12:26:47;11.83;;;5.50;;
70067;SDS011;57425;51.616;6.680;2023-04-07T12:29:15;13.30;;;5.97;;
70067;SDS011;57425;51.616;6.680;2023-04-07T12:31:41;14.43;;;7.20;;
70067;SDS011;57425;51.616;6.680;2023-04-07T12:34:07;18.13;;;6.33;;
70067;SDS011;57425;51.616;6.680;2023-04-07T12:36:33;16.57;;;6.20;;
70067;SDS011;57425;51.616;6.680;2023-04-07T12:39:00;16.67;;;5.67;;
70067;SDS011;57425;51.616;6.680;2023-04-07T12:41:25;11.37;;;5.90;;
70067;SDS011;57425;51.616;6.680;2023-04-07T12:43:51;14.43;;;5.70;;
70067;SDS011;57425;51.616;6.680;2023-04-07T12:46:17;13.50;;;5.03;;
70067;SDS011;57425;51.616;6.680;2023-04-07T12:48:43;13.87;;;5.43;;
70067;SDS011;57425;51.616;6.680;2023-04-07T12:51:09;8.77;;;4.97;;
70067;SDS011;57425;51.616;6.680;2023-04-07T12:53:35;12.90;;;5.47;;
70067;SDS011;57425;51.616;6.680;2023-04-07T12:56:01;10.00;;;4.13;;
70067;SDS011;57425;51.616;6.680;2023-04-07T12:58:26;15.73;;;5.07;;
70067;SDS011;57425;51.616;6.680;2023-04-07T13:00:52;13.23;;;5.63;;
70067;SDS011;57425;51.616;6.680;2023-04-07T13:03:18;8.13;;;4.53;;
70067;SDS011;57425;51.616;6.680;2023-04-07T13:05:43;8.80;;;4.57;;
70067;SDS011;57425;51.616;6.680;2023-04-07T13:08:09;17.07;;;4.90;;
70067;SDS011;57425;51.616;6.680;2023-04-07T13:10:35;9.27;;;4.37;;
70067;SDS011;57425;51.616;6.680;2023-04-07T13:13:00;13.73;;;5.23;;
70067;SDS011;57425;51.616;6.680;2023-04-07T13:15:26;9.77;;;4.20;;
70067;SDS011;57425;51.616;6.680;2023-04-07T13:17:52;15.43;;;5.87;;
70067;SDS011;57425;51.616;6.680;2023-04-07T13:20:19;13.53;;;5.27;;
70067;SDS011;57425;51.616;6.680;2023-04-07T13:22:45;12.80;;;5.80;;
70067;SDS011;57425;51.616;6.680;2023-04-07T13:25:11;15.53;;;6.67;;
70067;SDS011;57425;51.616;6.680;2023-04-07T13:27:37;12.40;;;5.00;;
70067;SDS011;57425;51.616;6.680;2023-04-07T13:30:02;19.60;;;6.13;;
70067;SDS011;57425;51.616;6.680;2023-04-07T13:32:28;17.00;;;5.50;;
70067;SDS011;57425;51.616;6.680;2023-04-07T13:34:54;16.80;;;5.93;;
70067;SDS011;57425;51.616;6.680;2023-04-07T13:37:20;14.57;;;5.87;;
70067;SDS011;57425;51.616;6.680;2023-04-07T13:39:45;16.23;;;5.33;;
70067;SDS011;57425;51.616;6.680;2023-04-07T13:42:12;22.70;;;7.73;;
70067;SDS011;57425;51.616;6.680;2023-04-07T13:44:40;19.10;;;6.13;;
70067;SDS011;57425;51.616;6.680;2023-04-07T13:47:09;18.83;;;5.90;;
70067;SDS011;57425;51.616;6.680;2023-04-07T13:49:35;22.17;;;7.07;;
70067;SDS011;57425;51.616;6.680;2023-04-07T13:52:00;20.97;;;8.07;;
70067;SDS011;57425;51.616;6.680;2023-04-07T13:54:26;20.13;;;7.17;;
70067;SDS011;57425;51.616;6.680;2023-04-07T13:56:51;18.80;;;8.93;;
70067;SDS011;57425;51.616;6.680;2023-04-07T13:59:17;20.77;;;8.77;;
70067;SDS011;57425;51.616;6.680;2023-04-07T14:01:43;17.87;;;8.10;;
70067;SDS011;57425;51.616;6.680;2023-04-07T14:04:09;14.67;;;8.07;;
70067;SDS011;57425;51.616;6.680;2023-04-07T14:06:34;18.73;;;8.43;;
70067;SDS011;57425;51.616;6.680;2023-04-07T14:09:01;25.70;;;9.27;;
70067;SDS011;57425;51.616;6.680;2023-04-07T14:11:27;24.40;;;9.50;;
70067;SDS011;57425;51.616;6.680;2023-04-07T14:13:53;32.13;;;9.40;;
70067;SDS011;57425;51.616;6.680;2023-04-07T14:16:20;25.33;;;9.73;;
70067;SDS011;57425;51.616;6.680;2023-04-07T14:18:46;20.60;;;8.37;;
70067;SDS011;57425;51.616;6.680;2023-04-07T14:21:13;27.17;;;8.97;;
70067;SDS011;57425;51.616;6.680;2023-04-07T14:23:39;21.33;;;9.33;;
70067;SDS011;57425;51.616;6.680;2023-04-07T14:26:08;21.40;;;9.90;;
70067;SDS011;57425;51.616;6.680;2023-04-07T14:28:35;25.53;;;9.03;;
70067;SDS011;57425;51.616;6.680;2023-04-07T14:31:01;20.37;;;9.47;;
70067;SDS011;57425;51.616;6.680;2023-04-07T14:33:28;22.00;;;8.17;;
70067;SDS011;57425;51.616;6.680;2023-04-07T14:35:53;24.03;;;9.63;;
70067;SDS011;57425;51.616;6.680;2023-04-07T14:38:19;21.47;;;7.73;;
70067;SDS011;57425;51.616;6.680;2023-04-07T14:40:48;20.00;;;8.70;;
70067;SDS011;57425;51.616;6.680;2023-04-07T14:43:14;20.07;;;8.97;;
70067;SDS011;57425;51.616;6.680;2023-04-07T14:45:39;25.53;;;8.33;;
70067;SDS011;57425;51.616;6.680;2023-04-07T14:48:05;14.80;;;7.80;;
70067;SDS011;57425;51.616;6.680;2023-04-07T14:50:33;24.37;;;8.03;;
70067;SDS011;57425;51.616;6.680;2023-04-07T14:52:59;17.53;;;6.90;;
70067;SDS011;57425;51.616;6.680;2023-04-07T14:55:25;15.37;;;6.17;;
70067;SDS011;57425;51.616;6.680;2023-04-07T14:57:51;11.33;;;4.70;;
70067;SDS011;57425;51.616;6.680;2023-04-07T15:00:16;9.43;;;4.80;;
70067;SDS011;57425;51.616;6.680;2023-04-07T15:02:42;11.40;;;4.40;;
70067;SDS011;57425;51.616;6.680;2023-04-07T15:05:08;11.37;;;3.80;;
70067;SDS011;57425;51.616;6.680;2023-04-07T15:07:33;8.03;;;4.53;;
70067;SDS011;57425;51.616;6.680;2023-04-07T15:10:00;12.97;;;5.00;;
70067;SDS011;57425;51.616;6.680;2023-04-07T15:12:26;9.77;;;5.30;;
70067;SDS011;57425;51.616;6.680;2023-04-07T15:14:53;16.90;;;4.90;;